sensor_id;sensor_type;location;lat;lon;timestamp;temperature;humidity
23267;DHT22;11802;53.160;8.214;2023-12-20T00:00:57;5.70;99.90
23267;DHT22;11802;53.160;8.214;2023-12-20T00:03:23;5.70;99.90
23267;DHT22;11802;53.160;8.214;2023-12-20T00:05:49;5.70;99.90
23267;DHT22;11802;53.160;8.214;2023-12-20T00:08:15;5.80;99.90
23267;DHT22;11802;53.160;8.214;2023-12-20T00:10:41;5.80;99.90
23267;DHT22;11802;53.160;8.214;2023-12-20T00:13:07;5.80;99.90
23267;DHT22;11802;53.160;8.214;2023-12-20T00:15:33;5.70;99.90
23267;DHT22;11802;53.160;8.214;2023-12-20T00:17:59;5.70;99.90
23267;DHT22;11802;53.160;8.214;2023-12-20T00:20:25;5.70;99.90
23267;DHT22;11802;53.160;8.214;2023-12-20T00:22:50;5.60;99.90
23267;DHT22;11802;53.160;8.214;2023-12-20T00:25:16;5.60;99.90
23267;DHT22;11802;53.160;8.214;2023-12-20T00:27:41;5.70;99.90
23267;DHT22;11802;53.160;8.214;2023-12-20T00:30:08;5.70;99.90
23267;DHT22;11802;53.160;8.214;2023-12-20T00:32:35;5.60;99.90
23267;DHT22;11802;53.160;8.214;2023-12-20T00:35:01;5.60;99.90
23267;DHT22;11802;53.160;8.214;2023-12-20T00:37:26;5.70;99.90
23267;DHT22;11802;53.160;8.214;2023-12-20T00:39:52;5.60;99.90
23267;DHT22;11802;53.160;8.214;2023-12-20T00:42:18;5.60;99.90
23267;DHT22;11802;53.160;8.214;2023-12-20T00:44:44;5.70;99.90
23267;DHT22;11802;53.160;8.214;2023-12-20T00:47:10;5.70;99.90
23267;DHT22;11802;53.160;8.214;2023-12-20T00:49:35;5.70;99.90
23267;DHT22;11802;53.160;8.214;2023-12-20T00:52:01;5.60;99.90
23267;DHT22;11802;53.160;8.214;2023-12-20T00:54:26;5.70;99.90
23267;DHT22;11802;53.160;8.214;2023-12-20T00:56:52;5.70;99.90
23267;DHT22;11802;53.160;8.214;2023-12-20T00:59:17;5.70;99.90
23267;DHT22;11802;53.160;8.214;2023-12-20T01:01:44;5.60;99.90
23267;DHT22;11802;53.160;8.214;2023-12-20T01:04:09;5.70;99.90
23267;DHT22;11802;53.160;8.214;2023-12-20T01:06:35;5.60;99.90
23267;DHT22;11802;53.160;8.214;2023-12-20T01:09:01;5.70;99.90
23267;DHT22;11802;53.160;8.214;2023-12-20T01:11:26;5.60;99.90
23267;DHT22;11802;53.160;8.214;2023-12-20T01:13:52;5.60;99.90
23267;DHT22;11802;53.160;8.214;2023-12-20T01:16:17;5.50;99.90
23267;DHT22;11802;53.160;8.214;2023-12-20T01:18:43;5.50;99.90
23267;DHT22;11802;53.160;8.214;2023-12-20T01:21:08;5.50;99.90
23267;DHT22;11802;53.160;8.214;2023-12-20T01:23:34;5.50;99.90
23267;DHT22;11802;53.160;8.214;2023-12-20T01:26:00;5.50;99.90
23267;DHT22;11802;53.160;8.214;2023-12-20T01:28:26;5.50;99.90
23267;DHT22;11802;53.160;8.214;2023-12-20T01:30:51;5.50;99.90
23267;DHT22;11802;53.160;8.214;2023-12-20T01:33:18;5.50;99.90
23267;DHT22;11802;53.160;8.214;2023-12-20T01:35:43;5.50;99.90
23267;DHT22;11802;53.160;8.214;2023-12-20T01:38:09;5.50;99.90
23267;DHT22;11802;53.160;8.214;2023-12-20T01:40:34;5.40;99.90
23267;DHT22;11802;53.160;8.214;2023-12-20T01:43:08;5.40;99.90
23267;DHT22;11802;53.160;8.214;2023-12-20T01:45:34;5.40;99.90
23267;DHT22;11802;53.160;8.214;2023-12-20T01:48:00;5.40;99.90
23267;DHT22;11802;53.160;8.214;2023-12-20T01:50:28;5.50;99.90
23267;DHT22;11802;53.160;8.214;2023-12-20T01:52:55;5.50;99.90
23267;DHT22;11802;53.160;8.214;2023-12-20T01:55:23;5.50;99.90
23267;DHT22;11802;53.160;8.214;2023-12-20T01:57:50;5.50;99.90
23267;DHT22;11802;53.160;8.214;2023-12-20T02:00:16;5.50;99.90
23267;DHT22;11802;53.160;8.214;2023-12-20T02:02:43;5.50;99.90
23267;DHT22;11802;53.160;8.214;2023-12-20T02:05:10;5.50;99.90
23267;DHT22;11802;53.160;8.214;2023-12-20T02:07:36;5.60;99.90
23267;DHT22;11802;53.160;8.214;2023-12-20T02:10:02;5.60;99.90
23267;DHT22;11802;53.160;8.214;2023-12-20T02:12:29;5.50;99.90
23267;DHT22;11802;53.160;8.214;2023-12-20T02:14:55;5.60;99.90
23267;DHT22;11802;53.160;8.214;2023-12-20T02:17:21;5.60;99.90
23267;DHT22;11802;53.160;8.214;2023-12-20T02:19:47;5.60;99.90
23267;DHT22;11802;53.160;8.214;2023-12-20T02:22:13;5.60;99.90
23267;DHT22;11802;53.160;8.214;2023-12-20T02:24:38;5.60;99.90
23267;DHT22;11802;53.160;8.214;2023-12-20T02:27:06;5.70;99.90
23267;DHT22;11802;53.160;8.214;2023-12-20T02:29:36;5.70;99.90
23267;DHT22;11802;53.160;8.214;2023-12-20T02:32:02;5.70;99.90
23267;DHT22;11802;53.160;8.214;2023-12-20T02:34:28;5.80;99.90
23267;DHT22;11802;53.160;8.214;2023-12-20T02:36:54;5.70;99.90
23267;DHT22;11802;53.160;8.214;2023-12-20T02:39:20;5.80;99.90
23267;DHT22;11802;53.160;8.214;2023-12-20T02:41:46;5.80;99.90
23267;DHT22;11802;53.160;8.214;2023-12-20T02:44:12;5.80;99.90
23267;DHT22;11802;53.160;8.214;2023-12-20T02:46:37;5.80;99.90
23267;DHT22;11802;53.160;8.214;2023-12-20T02:49:03;5.90;99.90
23267;DHT22;11802;53.160;8.214;2023-12-20T02:51:28;5.90;99.90
23267;DHT22;11802;53.160;8.214;2023-12-20T02:53:54;5.90;99.90
23267;DHT22;11802;53.160;8.214;2023-12-20T02:56:19;5.90;99.90
23267;DHT22;11802;53.160;8.214;2023-12-20T02:58:45;5.90;99.90
23267;DHT22;11802;53.160;8.214;2023-12-20T03:01:10;6.00;99.90
23267;DHT22;11802;53.160;8.214;2023-12-20T03:03:36;5.90;99.90
23267;DHT22;11802;53.160;8.214;2023-12-20T03:06:02;5.90;99.90
23267;DHT22;11802;53.160;8.214;2023-12-20T03:08:27;6.00;99.90
23267;DHT22;11802;53.160;8.214;2023-12-20T03:10:53;6.00;99.90
23267;DHT22;11802;53.160;8.214;2023-12-20T03:13:19;6.10;99.90
23267;DHT22;11802;53.160;8.214;2023-12-20T03:15:45;6.10;99.90
23267;DHT22;11802;53.160;8.214;2023-12-20T03:18:10;6.10;99.90
23267;DHT22;11802;53.160;8.214;2023-12-20T03:20:36;6.10;99.90
23267;DHT22;11802;53.160;8.214;2023-12-20T03:23:02;6.10;99.90
23267;DHT22;11802;53.160;8.214;2023-12-20T03:25:27;6.10;99.90
23267;DHT22;11802;53.160;8.214;2023-12-20T03:27:53;6.10;99.90
23267;DHT22;11802;53.160;8.214;2023-12-20T03:30:19;6.10;99.90
23267;DHT22;11802;53.160;8.214;2023-12-20T03:32:45;6.10;99.90
23267;DHT22;11802;53.160;8.214;2023-12-20T03:35:10;6.10;99.90
23267;DHT22;11802;53.160;8.214;2023-12-20T03:37:36;6.20;99.90
23267;DHT22;11802;53.160;8.214;2023-12-20T03:40:02;6.20;99.90
23267;DHT22;11802;53.160;8.214;2023-12-20T03:42:28;6.20;99.90
23267;DHT22;11802;53.160;8.214;2023-12-20T03:44:54;6.20;99.90
23267;DHT22;11802;53.160;8.214;2023-12-20T03:47:19;6.20;99.90
23267;DHT22;11802;53.160;8.214;2023-12-20T03:49:45;6.20;99.90
23267;DHT22;11802;53.160;8.214;2023-12-20T03:52:10;6.30;99.90
23267;DHT22;11802;53.160;8.214;2023-12-20T03:54:36;6.20;99.90
23267;DHT22;11802;53.160;8.214;2023-12-20T03:57:01;6.30;99.90
23267;DHT22;11802;53.160;8.214;2023-12-20T03:59:27;6.30;99.90
23267;DHT22;11802;53.160;8.214;2023-12-20T04:01:53;6.20;99.90
23267;DHT22;11802;53.160;8.214;2023-12-20T04:04:19;6.20;99.90
23267;DHT22;11802;53.160;8.214;2023-12-20T04:06:44;6.20;99.90
23267;DHT22;11802;53.160;8.214;2023-12-20T04:09:10;6.20;99.90
23267;DHT22;11802;53.160;8.214;2023-12-20T04:11:36;6.20;99.90
23267;DHT22;11802;53.160;8.214;2023-12-20T04:14:02;6.20;99.90
23267;DHT22;11802;53.160;8.214;2023-12-20T04:16:27;6.20;99.90
23267;DHT22;11802;53.160;8.214;2023-12-20T04:18:53;6.20;99.90
23267;DHT22;11802;53.160;8.214;2023-12-20T04:21:18;6.20;99.90
23267;DHT22;11802;53.160;8.214;2023-12-20T04:23:44;6.20;99.90
23267;DHT22;11802;53.160;8.214;2023-12-20T04:26:10;6.20;99.90
23267;DHT22;11802;53.160;8.214;2023-12-20T04:28:35;6.20;99.90
23267;DHT22;11802;53.160;8.214;2023-12-20T04:31:01;6.10;99.90
23267;DHT22;11802;53.160;8.214;2023-12-20T04:33:27;6.10;99.90
23267;DHT22;11802;53.160;8.214;2023-12-20T04:35:52;6.00;99.90
23267;DHT22;11802;53.160;8.214;2023-12-20T04:38:18;6.10;99.90
23267;DHT22;11802;53.160;8.214;2023-12-20T04:40:43;6.10;99.90
23267;DHT22;11802;53.160;8.214;2023-12-20T04:43:09;6.10;99.90
23267;DHT22;11802;53.160;8.214;2023-12-20T04:45:35;6.20;99.90
23267;DHT22;11802;53.160;8.214;2023-12-20T04:48:01;6.20;99.90
23267;DHT22;11802;53.160;8.214;2023-12-20T04:50:27;6.30;99.90
23267;DHT22;11802;53.160;8.214;2023-12-20T04:52:53;6.30;99.90
23267;DHT22;11802;53.160;8.214;2023-12-20T04:55:18;6.30;99.90
23267;DHT22;11802;53.160;8.214;2023-12-20T04:57:44;6.30;99.90
23267;DHT22;11802;53.160;8.214;2023-12-20T05:00:10;6.30;99.90
23267;DHT22;11802;53.160;8.214;2023-12-20T05:02:36;6.30;99.90
23267;DHT22;11802;53.160;8.214;2023-12-20T05:05:02;6.20;99.90
23267;DHT22;11802;53.160;8.214;2023-12-20T05:07:27;6.30;99.90
23267;DHT22;11802;53.160;8.214;2023-12-20T05:09:53;6.30;99.90
23267;DHT22;11802;53.160;8.214;2023-12-20T05:12:19;6.30;99.90
23267;DHT22;11802;53.160;8.214;2023-12-20T05:14:45;6.30;99.90
23267;DHT22;11802;53.160;8.214;2023-12-20T05:17:11;6.30;99.90
23267;DHT22;11802;53.160;8.214;2023-12-20T05:19:36;6.20;99.90
23267;DHT22;11802;53.160;8.214;2023-12-20T05:22:02;6.30;99.90
23267;DHT22;11802;53.160;8.214;2023-12-20T05:24:28;6.20;99.90
23267;DHT22;11802;53.160;8.214;2023-12-20T05:26:53;6.20;99.90
23267;DHT22;11802;53.160;8.214;2023-12-20T05:29:19;6.20;99.90
23267;DHT22;11802;53.160;8.214;2023-12-20T05:31:45;6.30;99.90
23267;DHT22;11802;53.160;8.214;2023-12-20T05:34:10;6.40;99.90
23267;DHT22;11802;53.160;8.214;2023-12-20T05:36:36;6.40;99.90
23267;DHT22;11802;53.160;8.214;2023-12-20T05:39:02;6.40;99.90
23267;DHT22;11802;53.160;8.214;2023-12-20T05:41:31;6.40;99.90
23267;DHT22;11802;53.160;8.214;2023-12-20T05:43:56;6.50;99.90
23267;DHT22;11802;53.160;8.214;2023-12-20T05:46:23;6.50;99.90
23267;DHT22;11802;53.160;8.214;2023-12-20T05:48:49;6.50;99.90
23267;DHT22;11802;53.160;8.214;2023-12-20T05:51:17;6.50;99.90
23267;DHT22;11802;53.160;8.214;2023-12-20T05:53:42;6.50;99.90
23267;DHT22;11802;53.160;8.214;2023-12-20T05:56:08;6.50;99.90
23267;DHT22;11802;53.160;8.214;2023-12-20T05:58:33;6.60;99.90
23267;DHT22;11802;53.160;8.214;2023-12-20T06:00:59;6.60;99.90
23267;DHT22;11802;53.160;8.214;2023-12-20T06:03:24;6.70;99.90
23267;DHT22;11802;53.160;8.214;2023-12-20T06:05:50;6.60;99.90
23267;DHT22;11802;53.160;8.214;2023-12-20T06:08:15;6.60;99.90
23267;DHT22;11802;53.160;8.214;2023-12-20T06:10:41;6.60;99.90
23267;DHT22;11802;53.160;8.214;2023-12-20T06:13:06;6.60;99.90
23267;DHT22;11802;53.160;8.214;2023-12-20T06:15:35;6.60;99.90
23267;DHT22;11802;53.160;8.214;2023-12-20T06:18:01;6.60;99.90
23267;DHT22;11802;53.160;8.214;2023-12-20T06:20:27;6.60;99.90
23267;DHT22;11802;53.160;8.214;2023-12-20T06:22:52;6.60;99.90
23267;DHT22;11802;53.160;8.214;2023-12-20T06:25:18;6.60;99.90
23267;DHT22;11802;53.160;8.214;2023-12-20T06:27:43;6.60;99.90
23267;DHT22;11802;53.160;8.214;2023-12-20T06:30:09;6.50;99.90
23267;DHT22;11802;53.160;8.214;2023-12-20T06:32:35;6.50;99.90
23267;DHT22;11802;53.160;8.214;2023-12-20T06:35:01;6.60;99.90
23267;DHT22;11802;53.160;8.214;2023-12-20T06:37:26;6.60;99.90
23267;DHT22;11802;53.160;8.214;2023-12-20T06:39:52;6.60;99.90
23267;DHT22;11802;53.160;8.214;2023-12-20T06:42:18;6.60;99.90
23267;DHT22;11802;53.160;8.214;2023-12-20T06:44:43;6.60;99.90
23267;DHT22;11802;53.160;8.214;2023-12-20T06:47:09;6.60;99.90
23267;DHT22;11802;53.160;8.214;2023-12-20T06:49:34;6.70;99.90
23267;DHT22;11802;53.160;8.214;2023-12-20T06:52:00;6.70;99.90
23267;DHT22;11802;53.160;8.214;2023-12-20T06:54:25;6.70;99.90
23267;DHT22;11802;53.160;8.214;2023-12-20T06:56:51;6.60;99.90
23267;DHT22;11802;53.160;8.214;2023-12-20T06:59:16;6.60;99.90
23267;DHT22;11802;53.160;8.214;2023-12-20T07:01:42;6.60;99.90
23267;DHT22;11802;53.160;8.214;2023-12-20T07:04:08;6.70;99.90
23267;DHT22;11802;53.160;8.214;2023-12-20T07:06:34;6.70;99.90
23267;DHT22;11802;53.160;8.214;2023-12-20T07:08:59;6.80;99.90
23267;DHT22;11802;53.160;8.214;2023-12-20T07:11:25;6.80;99.90
23267;DHT22;11802;53.160;8.214;2023-12-20T07:13:51;6.80;99.90
23267;DHT22;11802;53.160;8.214;2023-12-20T07:16:17;6.80;99.90
23267;DHT22;11802;53.160;8.214;2023-12-20T07:18:42;6.90;99.90
23267;DHT22;11802;53.160;8.214;2023-12-20T07:21:08;6.80;99.90
23267;DHT22;11802;53.160;8.214;2023-12-20T07:23:34;6.90;99.90
23267;DHT22;11802;53.160;8.214;2023-12-20T07:25:59;6.80;99.90
23267;DHT22;11802;53.160;8.214;2023-12-20T07:28:25;6.90;99.90
23267;DHT22;11802;53.160;8.214;2023-12-20T07:30:50;6.80;99.90
23267;DHT22;11802;53.160;8.214;2023-12-20T07:33:16;6.90;99.90
23267;DHT22;11802;53.160;8.214;2023-12-20T07:35:41;6.90;99.90
23267;DHT22;11802;53.160;8.214;2023-12-20T07:38:07;6.90;99.90
23267;DHT22;11802;53.160;8.214;2023-12-20T07:40:32;6.90;99.90
23267;DHT22;11802;53.160;8.214;2023-12-20T07:42:58;7.00;99.90
23267;DHT22;11802;53.160;8.214;2023-12-20T07:45:24;7.00;99.90
23267;DHT22;11802;53.160;8.214;2023-12-20T07:47:49;7.00;99.90
23267;DHT22;11802;53.160;8.214;2023-12-20T07:50:17;7.00;99.90
23267;DHT22;11802;53.160;8.214;2023-12-20T07:52:42;7.00;99.90
23267;DHT22;11802;53.160;8.214;2023-12-20T07:55:08;7.00;99.90
23267;DHT22;11802;53.160;8.214;2023-12-20T07:57:34;7.10;99.90
23267;DHT22;11802;53.160;8.214;2023-12-20T07:59:59;7.10;99.90
23267;DHT22;11802;53.160;8.214;2023-12-20T08:02:25;7.10;99.90
23267;DHT22;11802;53.160;8.214;2023-12-20T08:04:50;7.10;99.90
23267;DHT22;11802;53.160;8.214;2023-12-20T08:07:16;7.10;99.90
23267;DHT22;11802;53.160;8.214;2023-12-20T08:09:41;7.10;99.90
23267;DHT22;11802;53.160;8.214;2023-12-20T08:12:08;7.20;99.90
23267;DHT22;11802;53.160;8.214;2023-12-20T08:14:34;7.20;99.90
23267;DHT22;11802;53.160;8.214;2023-12-20T08:17:00;7.20;99.90
23267;DHT22;11802;53.160;8.214;2023-12-20T08:19:26;7.20;99.90
23267;DHT22;11802;53.160;8.214;2023-12-20T08:21:51;7.30;99.90
23267;DHT22;11802;53.160;8.214;2023-12-20T08:24:17;7.20;99.90
23267;DHT22;11802;53.160;8.214;2023-12-20T08:26:42;7.20;99.90
23267;DHT22;11802;53.160;8.214;2023-12-20T08:29:08;7.30;99.90
23267;DHT22;11802;53.160;8.214;2023-12-20T08:31:34;7.30;99.90
23267;DHT22;11802;53.160;8.214;2023-12-20T08:34:01;7.30;99.90
23267;DHT22;11802;53.160;8.214;2023-12-20T08:36:27;7.40;99.90
23267;DHT22;11802;53.160;8.214;2023-12-20T08:38:56;7.40;99.90
23267;DHT22;11802;53.160;8.214;2023-12-20T08:41:21;7.40;99.90
23267;DHT22;11802;53.160;8.214;2023-12-20T08:43:47;7.40;99.90
23267;DHT22;11802;53.160;8.214;2023-12-20T08:46:14;7.40;99.90
23267;DHT22;11802;53.160;8.214;2023-12-20T08:48:40;7.40;99.90
23267;DHT22;11802;53.160;8.214;2023-12-20T08:51:06;7.40;99.90
23267;DHT22;11802;53.160;8.214;2023-12-20T08:53:34;7.40;99.90
23267;DHT22;11802;53.160;8.214;2023-12-20T08:56:00;7.40;99.90
23267;DHT22;11802;53.160;8.214;2023-12-20T08:58:27;7.40;99.90
23267;DHT22;11802;53.160;8.214;2023-12-20T09:00:53;7.40;99.90
23267;DHT22;11802;53.160;8.214;2023-12-20T09:03:18;7.40;99.90
23267;DHT22;11802;53.160;8.214;2023-12-20T09:05:44;7.50;99.90
23267;DHT22;11802;53.160;8.214;2023-12-20T09:08:09;7.50;99.90
23267;DHT22;11802;53.160;8.214;2023-12-20T09:10:36;7.60;99.90
23267;DHT22;11802;53.160;8.214;2023-12-20T09:13:02;7.60;99.90
23267;DHT22;11802;53.160;8.214;2023-12-20T09:15:28;7.70;99.90
23267;DHT22;11802;53.160;8.214;2023-12-20T09:17:55;7.80;99.90
23267;DHT22;11802;53.160;8.214;2023-12-20T09:20:21;7.80;99.90
23267;DHT22;11802;53.160;8.214;2023-12-20T09:22:48;7.60;99.90
23267;DHT22;11802;53.160;8.214;2023-12-20T09:25:14;7.20;99.90
23267;DHT22;11802;53.160;8.214;2023-12-20T09:27:41;6.90;99.90
23267;DHT22;11802;53.160;8.214;2023-12-20T09:30:07;6.70;99.90
23267;DHT22;11802;53.160;8.214;2023-12-20T09:32:32;6.50;99.90
23267;DHT22;11802;53.160;8.214;2023-12-20T09:34:58;6.30;99.90
23267;DHT22;11802;53.160;8.214;2023-12-20T09:37:27;6.30;99.90
23267;DHT22;11802;53.160;8.214;2023-12-20T09:39:53;6.20;99.90
23267;DHT22;11802;53.160;8.214;2023-12-20T09:42:26;6.20;99.90
23267;DHT22;11802;53.160;8.214;2023-12-20T09:44:53;6.20;99.90
23267;DHT22;11802;53.160;8.214;2023-12-20T09:47:20;6.30;99.90
23267;DHT22;11802;53.160;8.214;2023-12-20T09:49:50;6.30;99.90
23267;DHT22;11802;53.160;8.214;2023-12-20T09:52:16;6.40;99.90
23267;DHT22;11802;53.160;8.214;2023-12-20T09:54:43;6.40;99.90
23267;DHT22;11802;53.160;8.214;2023-12-20T09:57:09;6.50;99.90
23267;DHT22;11802;53.160;8.214;2023-12-20T09:59:35;6.50;99.90
23267;DHT22;11802;53.160;8.214;2023-12-20T10:02:01;6.50;99.90
23267;DHT22;11802;53.160;8.214;2023-12-20T10:04:32;6.50;99.90
23267;DHT22;11802;53.160;8.214;2023-12-20T10:07:02;6.50;99.90
23267;DHT22;11802;53.160;8.214;2023-12-20T10:09:31;6.60;99.90
23267;DHT22;11802;53.160;8.214;2023-12-20T10:11:57;6.60;99.90
23267;DHT22;11802;53.160;8.214;2023-12-20T10:14:23;6.70;99.90
23267;DHT22;11802;53.160;8.214;2023-12-20T10:16:49;6.80;99.90
23267;DHT22;11802;53.160;8.214;2023-12-20T10:19:17;6.80;99.90
23267;DHT22;11802;53.160;8.214;2023-12-20T10:21:43;6.80;99.90
23267;DHT22;11802;53.160;8.214;2023-12-20T10:24:16;6.90;99.90
23267;DHT22;11802;53.160;8.214;2023-12-20T10:26:42;7.00;99.90
23267;DHT22;11802;53.160;8.214;2023-12-20T10:29:09;7.30;99.90
23267;DHT22;11802;53.160;8.214;2023-12-20T10:31:36;7.10;99.90
23267;DHT22;11802;53.160;8.214;2023-12-20T10:34:04;7.10;99.90
23267;DHT22;11802;53.160;8.214;2023-12-20T10:36:32;7.10;99.90
23267;DHT22;11802;53.160;8.214;2023-12-20T10:38:58;7.00;99.90
23267;DHT22;11802;53.160;8.214;2023-12-20T10:41:31;7.10;99.90
23267;DHT22;11802;53.160;8.214;2023-12-20T10:44:00;7.10;99.90
23267;DHT22;11802;53.160;8.214;2023-12-20T10:46:29;7.30;99.90
23267;DHT22;11802;53.160;8.214;2023-12-20T10:48:58;7.40;99.90
23267;DHT22;11802;53.160;8.214;2023-12-20T10:51:24;7.50;99.90
23267;DHT22;11802;53.160;8.214;2023-12-20T10:53:55;7.50;99.90
23267;DHT22;11802;53.160;8.214;2023-12-20T10:56:22;7.50;99.90
23267;DHT22;11802;53.160;8.214;2023-12-20T10:58:49;7.50;99.90
23267;DHT22;11802;53.160;8.214;2023-12-20T11:01:16;7.40;99.90
23267;DHT22;11802;53.160;8.214;2023-12-20T11:03:48;7.50;99.90
23267;DHT22;11802;53.160;8.214;2023-12-20T11:09:10;7.30;99.90
23267;DHT22;11802;53.160;8.214;2023-12-20T11:14:33;7.20;99.90
23267;DHT22;11802;53.160;8.214;2023-12-20T11:17:09;7.20;99.90
23267;DHT22;11802;53.160;8.214;2023-12-20T11:22:22;7.40;99.90
23267;DHT22;11802;53.160;8.214;2023-12-20T11:24:48;7.40;99.90
23267;DHT22;11802;53.160;8.214;2023-12-20T11:27:14;7.40;99.90
23267;DHT22;11802;53.160;8.214;2023-12-20T11:29:40;7.50;99.90
23267;DHT22;11802;53.160;8.214;2023-12-20T11:35:01;7.50;99.90
23267;DHT22;11802;53.160;8.214;2023-12-20T11:37:41;7.50;99.90
23267;DHT22;11802;53.160;8.214;2023-12-20T11:40:14;7.60;99.90
23267;DHT22;11802;53.160;8.214;2023-12-20T11:42:45;7.60;99.90
23267;DHT22;11802;53.160;8.214;2023-12-20T11:45:13;7.60;99.90
23267;DHT22;11802;53.160;8.214;2023-12-20T11:47:46;7.60;99.90
23267;DHT22;11802;53.160;8.214;2023-12-20T11:50:12;7.70;99.90
23267;DHT22;11802;53.160;8.214;2023-12-20T11:52:38;7.80;99.90
23267;DHT22;11802;53.160;8.214;2023-12-20T11:55:04;7.80;99.90
23267;DHT22;11802;53.160;8.214;2023-12-20T11:57:30;7.90;99.90
23267;DHT22;11802;53.160;8.214;2023-12-20T11:59:56;7.90;99.90
23267;DHT22;11802;53.160;8.214;2023-12-20T12:02:22;8.00;99.90
23267;DHT22;11802;53.160;8.214;2023-12-20T12:04:49;8.20;99.90
23267;DHT22;11802;53.160;8.214;2023-12-20T12:07:16;8.40;99.90
23267;DHT22;11802;53.160;8.214;2023-12-20T12:09:42;8.50;99.90
23267;DHT22;11802;53.160;8.214;2023-12-20T12:12:08;8.50;99.90
23267;DHT22;11802;53.160;8.214;2023-12-20T12:14:34;8.60;99.90
23267;DHT22;11802;53.160;8.214;2023-12-20T12:17:02;8.60;99.90
23267;DHT22;11802;53.160;8.214;2023-12-20T12:19:28;8.70;99.90
23267;DHT22;11802;53.160;8.214;2023-12-20T12:22:12;8.70;99.90
23267;DHT22;11802;53.160;8.214;2023-12-20T12:24:42;8.70;99.90
23267;DHT22;11802;53.160;8.214;2023-12-20T12:27:08;8.70;99.90
23267;DHT22;11802;53.160;8.214;2023-12-20T12:29:35;8.60;99.90
23267;DHT22;11802;53.160;8.214;2023-12-20T12:32:01;8.40;99.90
23267;DHT22;11802;53.160;8.214;2023-12-20T12:34:29;8.20;99.90
23267;DHT22;11802;53.160;8.214;2023-12-20T12:36:56;8.10;99.90
23267;DHT22;11802;53.160;8.214;2023-12-20T12:39:23;7.80;99.90
23267;DHT22;11802;53.160;8.214;2023-12-20T12:41:50;7.60;99.90
23267;DHT22;11802;53.160;8.214;2023-12-20T12:44:16;7.50;99.90
23267;DHT22;11802;53.160;8.214;2023-12-20T12:46:43;7.40;99.90
23267;DHT22;11802;53.160;8.214;2023-12-20T12:49:09;7.20;99.90
23267;DHT22;11802;53.160;8.214;2023-12-20T12:51:34;7.10;99.90
23267;DHT22;11802;53.160;8.214;2023-12-20T12:54:00;7.10;99.90
23267;DHT22;11802;53.160;8.214;2023-12-20T12:56:26;7.00;99.90
23267;DHT22;11802;53.160;8.214;2023-12-20T12:58:51;7.00;99.90
23267;DHT22;11802;53.160;8.214;2023-12-20T13:01:17;7.00;99.90
23267;DHT22;11802;53.160;8.214;2023-12-20T13:03:42;7.10;99.90
23267;DHT22;11802;53.160;8.214;2023-12-20T13:06:08;7.20;99.90
23267;DHT22;11802;53.160;8.214;2023-12-20T13:08:34;7.40;99.90
23267;DHT22;11802;53.160;8.214;2023-12-20T13:11:00;7.50;99.90
23267;DHT22;11802;53.160;8.214;2023-12-20T13:13:27;7.60;99.90
23267;DHT22;11802;53.160;8.214;2023-12-20T13:15:52;7.60;99.90
23267;DHT22;11802;53.160;8.214;2023-12-20T13:18:20;7.60;99.90
23267;DHT22;11802;53.160;8.214;2023-12-20T13:20:46;7.60;99.90
23267;DHT22;11802;53.160;8.214;2023-12-20T13:23:12;7.60;99.90
23267;DHT22;11802;53.160;8.214;2023-12-20T13:25:39;7.60;99.90
23267;DHT22;11802;53.160;8.214;2023-12-20T13:28:05;7.60;99.90
23267;DHT22;11802;53.160;8.214;2023-12-20T13:30:30;7.60;99.90
23267;DHT22;11802;53.160;8.214;2023-12-20T13:32:56;7.60;99.90
23267;DHT22;11802;53.160;8.214;2023-12-20T13:35:21;7.70;99.90
23267;DHT22;11802;53.160;8.214;2023-12-20T13:37:47;7.70;99.90
23267;DHT22;11802;53.160;8.214;2023-12-20T13:40:12;7.70;99.90
23267;DHT22;11802;53.160;8.214;2023-12-20T13:42:41;7.70;99.90
23267;DHT22;11802;53.160;8.214;2023-12-20T13:45:07;7.80;99.90
23267;DHT22;11802;53.160;8.214;2023-12-20T13:47:33;7.80;99.90
23267;DHT22;11802;53.160;8.214;2023-12-20T13:49:59;7.70;99.90
23267;DHT22;11802;53.160;8.214;2023-12-20T13:52:25;7.70;99.90
23267;DHT22;11802;53.160;8.214;2023-12-20T13:54:50;7.60;99.90
23267;DHT22;11802;53.160;8.214;2023-12-20T13:57:16;7.60;99.90
23267;DHT22;11802;53.160;8.214;2023-12-20T13:59:41;7.60;99.90
23267;DHT22;11802;53.160;8.214;2023-12-20T14:02:13;7.50;99.90
23267;DHT22;11802;53.160;8.214;2023-12-20T14:04:38;7.50;99.90
23267;DHT22;11802;53.160;8.214;2023-12-20T14:07:05;7.50;99.90
23267;DHT22;11802;53.160;8.214;2023-12-20T14:09:33;7.50;99.90
23267;DHT22;11802;53.160;8.214;2023-12-20T14:11:59;7.50;99.90
23267;DHT22;11802;53.160;8.214;2023-12-20T14:14:24;7.50;99.90
23267;DHT22;11802;53.160;8.214;2023-12-20T14:16:50;7.40;99.90
23267;DHT22;11802;53.160;8.214;2023-12-20T14:19:16;7.40;99.90
23267;DHT22;11802;53.160;8.214;2023-12-20T14:21:42;7.30;99.90
23267;DHT22;11802;53.160;8.214;2023-12-20T14:24:07;7.30;99.90
23267;DHT22;11802;53.160;8.214;2023-12-20T14:26:33;7.30;99.90
23267;DHT22;11802;53.160;8.214;2023-12-20T14:28:58;7.30;99.90
23267;DHT22;11802;53.160;8.214;2023-12-20T14:31:24;7.40;99.90
23267;DHT22;11802;53.160;8.214;2023-12-20T14:33:50;7.30;99.90
23267;DHT22;11802;53.160;8.214;2023-12-20T14:36:18;7.40;99.90
23267;DHT22;11802;53.160;8.214;2023-12-20T14:38:45;7.40;99.90
23267;DHT22;11802;53.160;8.214;2023-12-20T14:41:12;7.40;99.90
23267;DHT22;11802;53.160;8.214;2023-12-20T14:43:38;7.30;99.90
23267;DHT22;11802;53.160;8.214;2023-12-20T14:46:03;7.30;99.90
23267;DHT22;11802;53.160;8.214;2023-12-20T14:48:30;7.30;99.90
23267;DHT22;11802;53.160;8.214;2023-12-20T14:50:57;7.40;99.90
23267;DHT22;11802;53.160;8.214;2023-12-20T14:53:24;7.30;99.90
23267;DHT22;11802;53.160;8.214;2023-12-20T14:55:50;7.30;99.90
23267;DHT22;11802;53.160;8.214;2023-12-20T14:58:16;7.30;99.90
23267;DHT22;11802;53.160;8.214;2023-12-20T15:00:42;7.30;99.90
23267;DHT22;11802;53.160;8.214;2023-12-20T15:03:09;7.30;99.90
23267;DHT22;11802;53.160;8.214;2023-12-20T15:05:34;7.30;99.90
23267;DHT22;11802;53.160;8.214;2023-12-20T15:08:01;7.20;99.90
23267;DHT22;11802;53.160;8.214;2023-12-20T15:10:26;7.20;99.90
23267;DHT22;11802;53.160;8.214;2023-12-20T15:12:52;7.20;99.90
23267;DHT22;11802;53.160;8.214;2023-12-20T15:15:17;7.30;99.90
23267;DHT22;11802;53.160;8.214;2023-12-20T15:17:44;7.30;99.90
23267;DHT22;11802;53.160;8.214;2023-12-20T15:20:11;7.30;99.90
23267;DHT22;11802;53.160;8.214;2023-12-20T15:22:37;7.20;99.90
23267;DHT22;11802;53.160;8.214;2023-12-20T15:25:03;7.20;99.90
23267;DHT22;11802;53.160;8.214;2023-12-20T15:27:31;7.00;99.90
23267;DHT22;11802;53.160;8.214;2023-12-20T15:29:58;6.90;99.90
23267;DHT22;11802;53.160;8.214;2023-12-20T15:32:24;6.80;99.90
23267;DHT22;11802;53.160;8.214;2023-12-20T15:34:49;6.80;99.90
23267;DHT22;11802;53.160;8.214;2023-12-20T15:37:15;6.70;99.90
23267;DHT22;11802;53.160;8.214;2023-12-20T15:39:44;6.80;99.90
23267;DHT22;11802;53.160;8.214;2023-12-20T15:42:09;6.80;99.90
23267;DHT22;11802;53.160;8.214;2023-12-20T15:44:35;6.80;99.90
23267;DHT22;11802;53.160;8.214;2023-12-20T15:47:00;6.80;99.90
23267;DHT22;11802;53.160;8.214;2023-12-20T15:49:26;6.90;99.90